Time;durP1;ratioP1;P1;durP2;ratioP2;P2;SDS_P1;SDS_P2;PMS_P1;PMS_P2;Temp;Humidity;BMP_temperature;BMP_pressure;BME280_temperature;BME280_humidity;BME280_pressure;Samples;Min_cycle;Max_cycle;Signal;HPM_P1;HPM_P2
2023/07/03 00:01:26;;;;;;;9.18;4.15;;;;;;;;;;4914495;29;20126;-85
2023/07/03 00:03:52;;;;;;;9.07;4.40;;;;;;;;;;4922397;29;20031;-85
2023/07/03 00:06:17;;;;;;;7.60;3.80;;;;;;;;;;4912992;29;20468;-85
2023/07/03 00:08:43;;;;;;;10.73;4.72;;;;;;;;;;4929705;29;20050;-85
2023/07/03 00:11:08;;;;;;;9.30;3.92;;;;;;;;;;4911629;29;20040;-85
2023/07/03 00:13:37;;;;;;;8.32;4.35;;;;;;;;;;4917062;29;20159;-85
2023/07/03 00:16:03;;;;;;;9.23;4.18;;;;;;;;;;4940423;28;20046;-86
2023/07/03 00:18:29;;;;;;;8.33;4.00;;;;;;;;;;4927318;29;20558;-85
2023/07/03 00:20:58;;;;;;;7.93;4.30;;;;;;;;;;4908921;29;20070;-86
2023/07/03 00:23:25;;;;;;;9.23;4.53;;;;;;;;;;4928755;29;20040;-85
2023/07/03 00:25:51;;;;;;;8.55;3.80;;;;;;;;;;4911461;29;20063;-85
2023/07/03 00:28:20;;;;;;;10.77;4.60;;;;;;;;;;4909425;29;20035;-85
2023/07/03 00:30:45;;;;;;;12.45;4.38;;;;;;;;;;4910000;29;20820;-85
2023/07/03 00:33:12;;;;;;;10.60;4.73;;;;;;;;;;4937949;29;20043;-85
2023/07/03 00:35:39;;;;;;;7.43;4.35;;;;;;;;;;4892764;29;20102;-85
2023/07/03 00:38:04;;;;;;;9.35;4.53;;;;;;;;;;4912511;29;20087;-85
2023/07/03 00:40:30;;;;;;;9.30;4.13;;;;;;;;;;4911347;29;20383;-85
2023/07/03 00:42:57;;;;;;;8.98;4.50;;;;;;;;;;4927794;29;20563;-85
2023/07/03 00:45:22;;;;;;;9.63;4.27;;;;;;;;;;4913000;29;20076;-85
2023/07/03 00:47:52;;;;;;;12.52;4.28;;;;;;;;;;4912306;29;20039;-85
2023/07/03 00:50:18;;;;;;;15.52;4.53;;;;;;;;;;4896008;29;20035;-85
2023/07/03 00:52:44;;;;;;;9.00;4.28;;;;;;;;;;4927523;29;20082;-86
2023/07/03 00:55:13;;;;;;;10.07;4.35;;;;;;;;;;4908420;29;20567;-85
2023/07/03 00:57:40;;;;;;;11.48;4.72;;;;;;;;;;4924749;29;20036;-85
2023/07/03 01:00:06;;;;;;;9.77;4.70;;;;;;;;;;4910815;29;20423;-84
2023/07/03 01:02:39;;;;;;;9.88;4.20;;;;;;;;;;4911468;29;20040;-84
2023/07/03 01:05:17;;;;;;;9.18;4.88;;;;;;;;;;4943585;29;20046;-84
2023/07/03 01:07:44;;;;;;;11.20;4.32;;;;;;;;;;4933221;28;20028;-84
2023/07/03 01:10:14;;;;;;;10.45;4.70;;;;;;;;;;4902134;29;20044;-83
2023/07/03 01:12:43;;;;;;;11.95;5.05;;;;;;;;;;4911761;29;20039;-84
2023/07/03 01:15:19;;;;;;;10.00;4.45;;;;;;;;;;4926705;29;20066;-84
2023/07/03 01:17:47;;;;;;;9.05;4.60;;;;;;;;;;4907768;29;20032;-84
2023/07/03 01:20:15;;;;;;;8.88;4.43;;;;;;;;;;4911157;29;20118;-84
2023/07/03 01:22:46;;;;;;;10.73;4.68;;;;;;;;;;4934838;29;20190;-84
2023/07/03 01:25:16;;;;;;;8.48;4.60;;;;;;;;;;4915216;29;20031;-83
2023/07/03 01:27:43;;;;;;;8.05;4.00;;;;;;;;;;4911690;29;20039;-84
2023/07/03 01:30:12;;;;;;;10.32;4.68;;;;;;;;;;4911980;29;20490;-84
2023/07/03 01:32:39;;;;;;;10.30;5.22;;;;;;;;;;4921222;29;20158;-86
2023/07/03 01:35:09;;;;;;;11.80;4.90;;;;;;;;;;4915057;29;20039;-84
2023/07/03 01:37:37;;;;;;;10.13;4.93;;;;;;;;;;4919420;29;20071;-85
2023/07/03 01:40:03;;;;;;;;;;;;;;;;;;4917853;29;20040;-86
2023/07/03 01:42:29;;;;;;;12.35;4.55;;;;;;;;;;4921937;29;19929;-85
2023/07/03 01:44:55;;;;;;;12.00;4.68;;;;;;;;;;4917443;29;20043;-86
2023/07/03 01:47:20;;;;;;;8.57;4.80;;;;;;;;;;4931077;29;20671;-85
2023/07/03 01:49:47;;;;;;;8.10;4.40;;;;;;;;;;4912921;29;20031;-86
2023/07/03 01:52:21;;;;;;;12.18;5.07;;;;;;;;;;4905949;29;20035;-85
2023/07/03 01:54:55;;;;;;;10.55;5.00;;;;;;;;;;4930775;29;20431;-85
2023/07/03 01:57:31;;;;;;;8.35;4.70;;;;;;;;;;4913413;29;20412;-85
2023/07/03 01:59:58;;;;;;;10.90;4.90;;;;;;;;;;4929847;29;20039;-85
2023/07/03 02:02:28;;;;;;;12.63;5.00;;;;;;;;;;4900879;29;20040;-85
2023/07/03 02:05:09;;;;;;;9.00;4.38;;;;;;;;;;4897492;29;20055;-85
2023/07/03 02:07:35;;;;;;;13.35;5.18;;;;;;;;;;4907447;29;20052;-85
2023/07/03 02:10:02;;;;;;;10.85;4.70;;;;;;;;;;4892247;29;20031;-85
2023/07/03 02:12:28;;;;;;;10.20;4.63;;;;;;;;;;4914374;29;20036;-85
2023/07/03 02:14:54;;;;;;;8.57;4.80;;;;;;;;;;4933935;29;20039;-86
2023/07/03 02:17:19;;;;;;;12.63;5.18;;;;;;;;;;4919249;29;20067;-85
2023/07/03 02:19:45;;;;;;;13.73;5.28;;;;;;;;;;4927494;29;20043;-85
2023/07/03 02:22:10;;;;;;;13.30;5.15;;;;;;;;;;4907998;29;20051;-85
2023/07/03 02:24:36;;;;;;;8.95;5.18;;;;;;;;;;4919249;29;20049;-84
2023/07/03 02:27:01;;;;;;;10.55;4.88;;;;;;;;;;4923999;28;20053;-84
2023/07/03 02:29:27;;;;;;;8.75;4.47;;;;;;;;;;4948889;29;20103;-84
2023/07/03 02:31:52;;;;;;;11.50;5.10;;;;;;;;;;4907945;29;20131;-84
2023/07/03 02:34:20;;;;;;;10.30;4.80;;;;;;;;;;4920728;29;20071;-85
2023/07/03 02:36:47;;;;;;;9.45;4.88;;;;;;;;;;4912598;29;20039;-85
2023/07/03 02:39:12;;;;;;;10.23;4.65;;;;;;;;;;4914150;29;20035;-85
2023/07/03 02:41:37;;;;;;;9.35;4.53;;;;;;;;;;4918655;29;20111;-85
2023/07/03 02:44:03;;;;;;;9.95;4.90;;;;;;;;;;4931816;29;20039;-85
2023/07/03 02:46:29;;;;;;;9.55;4.63;;;;;;;;;;4918925;29;20046;-85
2023/07/03 02:48:54;;;;;;;8.48;4.65;;;;;;;;;;4919615;29;20107;-85
2023/07/03 02:51:27;;;;;;;12.23;4.72;;;;;;;;;;4917362;29;20532;-84
2023/07/03 02:53:52;;;;;;;8.65;4.82;;;;;;;;;;4931020;29;20031;-85
2023/07/03 02:56:18;;;;;;;12.50;5.32;;;;;;;;;;4924714;29;20074;-84
2023/07/03 02:58:43;;;;;;;11.43;4.70;;;;;;;;;;4892784;29;20043;-83
2023/07/03 03:01:09;;;;;;;11.15;4.65;;;;;;;;;;4899406;28;20122;-83
2023/07/03 03:03:34;;;;;;;10.75;4.85;;;;;;;;;;4920323;29;20527;-84
2023/07/03 03:06:05;;;;;;;11.05;4.93;;;;;;;;;;4904854;29;20031;-84
2023/07/03 03:08:30;;;;;;;11.45;5.05;;;;;;;;;;4904556;29;20039;-83
2023/07/03 03:10:56;;;;;;;9.40;4.85;;;;;;;;;;4928343;29;20036;-83
2023/07/03 03:13:22;;;;;;;12.27;4.93;;;;;;;;;;4921956;29;20085;-84
2023/07/03 03:15:47;;;;;;;9.30;4.88;;;;;;;;;;4913232;29;20174;-84
2023/07/03 03:18:13;;;;;;;14.65;5.20;;;;;;;;;;4912949;29;20388;-84
2023/07/03 03:20:38;;;;;;;12.63;5.65;;;;;;;;;;4943838;29;20047;-85
2023/07/03 03:23:04;;;;;;;11.57;5.78;;;;;;;;;;4913366;29;20075;-85
2023/07/03 03:25:29;;;;;;;10.32;4.78;;;;;;;;;;4944211;29;20040;-84
2023/07/03 03:27:55;;;;;;;11.88;5.15;;;;;;;;;;4933071;29;20156;-84
2023/07/03 03:30:20;;;;;;;14.95;5.45;;;;;;;;;;4914980;29;20070;-84
2023/07/03 03:32:46;;;;;;;11.85;5.25;;;;;;;;;;4937906;28;20047;-85
2023/07/03 03:35:20;;;;;;;12.38;5.45;;;;;;;;;;4947181;29;20047;-84
2023/07/03 03:37:46;;;;;;;12.75;5.75;;;;;;;;;;4923139;29;20028;-84
2023/07/03 03:40:11;;;;;;;14.43;5.10;;;;;;;;;;4915538;29;20047;-84
2023/07/03 03:42:39;;;;;;;12.68;5.43;;;;;;;;;;4924672;28;20047;-85
2023/07/03 03:45:05;;;;;;;11.02;5.25;;;;;;;;;;4946924;29;20092;-85
2023/07/03 03:47:31;;;;;;;11.23;5.40;;;;;;;;;;4915354;29;20142;-85
2023/07/03 03:49:56;;;;;;;10.70;5.07;;;;;;;;;;4929254;29;20183;-84
2023/07/03 03:52:22;;;;;;;10.30;4.47;;;;;;;;;;4913267;29;20040;-82
2023/07/03 03:54:47;;;;;;;8.77;4.95;;;;;;;;;;4929564;29;20127;-81
2023/07/03 03:57:13;;;;;;;14.38;5.13;;;;;;;;;;4903119;29;20040;-81
2023/07/03 03:59:39;;;;;;;11.18;5.18;;;;;;;;;;4913572;29;20107;-80
2023/07/03 04:02:27;;;;;;;9.73;4.93;;;;;;;;;;4923553;29;20091;-80
2023/07/03 04:04:53;;;;;;;12.68;4.88;;;;;;;;;;4851965;29;20089;-81
2023/07/03 04:07:18;;;;;;;10.70;5.20;;;;;;;;;;4853388;29;20181;-81
2023/07/03 04:09:46;;;;;;;11.93;4.88;;;;;;;;;;4853623;29;20505;-82
2023/07/03 04:12:12;;;;;;;14.50;5.43;;;;;;;;;;4851059;29;20049;-80
2023/07/03 04:14:38;;;;;;;9.90;4.97;;;;;;;;;;4854012;29;20102;-81
2023/07/03 04:17:05;;;;;;;11.50;5.30;;;;;;;;;;4866657;29;20041;-81
2023/07/03 04:19:30;;;;;;;11.93;5.72;;;;;;;;;;4860263;29;20417;-83
2023/07/03 04:21:56;;;;;;;11.95;5.03;;;;;;;;;;4849336;29;20043;-81
2023/07/03 04:24:21;;;;;;;10.98;5.28;;;;;;;;;;4843233;29;20041;-82
2023/07/03 04:26:46;;;;;;;12.50;5.47;;;;;;;;;;4852843;29;20041;-81
2023/07/03 04:29:12;;;;;;;12.63;5.55;;;;;;;;;;4867192;29;20120;-81
2023/07/03 04:31:39;;;;;;;9.95;5.18;;;;;;;;;;4865501;29;20056;-80
2023/07/03 04:34:05;;;;;;;10.82;5.95;;;;;;;;;;4851973;29;20127;-81
2023/07/03 04:36:31;;;;;;;11.70;5.38;;;;;;;;;;4850119;29;20085;-81
2023/07/03 04:38:57;;;;;;;11.18;5.63;;;;;;;;;;4867764;29;20048;-84
2023/07/03 04:41:23;;;;;;;12.65;5.53;;;;;;;;;;4886138;29;20036;-85
2023/07/03 04:43:51;;;;;;;11.27;5.07;;;;;;;;;;4916984;29;20042;-86
2023/07/03 04:46:18;;;;;;;;;;;;;;;;;;4930929;29;20476;-87
2023/07/03 04:48:45;;;;;;;12.25;5.35;;;;;;;;;;4901507;29;19918;-84
2023/07/03 04:51:11;;;;;;;12.30;5.70;;;;;;;;;;4917048;29;20412;-85
2023/07/03 04:53:40;;;;;;;10.00;5.32;;;;;;;;;;4910471;29;20039;-83
2023/07/03 04:56:07;;;;;;;11.90;5.30;;;;;;;;;;4942580;29;20043;-84
2023/07/03 04:58:32;;;;;;;11.82;5.50;;;;;;;;;;4920743;29;20056;-83
2023/07/03 05:00:57;;;;;;;11.00;5.32;;;;;;;;;;4910422;29;20063;-84
2023/07/03 05:03:23;;;;;;;10.00;5.32;;;;;;;;;;4927248;29;20050;-84
2023/07/03 05:05:49;;;;;;;11.02;5.38;;;;;;;;;;4910373;29;20138;-84
2023/07/03 05:08:14;;;;;;;13.32;5.32;;;;;;;;;;4945373;29;20040;-84
2023/07/03 05:10:40;;;;;;;12.45;5.72;;;;;;;;;;4909858;29;20031;-84
2023/07/03 05:13:05;;;;;;;9.45;5.32;;;;;;;;;;4908798;29;20043;-83
2023/07/03 05:15:31;;;;;;;9.88;5.57;;;;;;;;;;4929137;29;20051;-84
2023/07/03 05:17:56;;;;;;;12.68;5.82;;;;;;;;;;4921427;29;20052;-84
2023/07/03 05:20:22;;;;;;;11.05;5.97;;;;;;;;;;4913396;29;20039;-83
2023/07/03 05:22:48;;;;;;;10.93;5.50;;;;;;;;;;4915601;29;20036;-82
2023/07/03 05:25:34;;;;;;;10.27;5.65;;;;;;;;;;4910940;29;20032;-81
2023/07/03 05:27:59;;;;;;;11.68;5.60;;;;;;;;;;4873396;29;20462;-82
2023/07/03 05:30:45;;;;;;;12.85;5.93;;;;;;;;;;4864624;29;20124;-82
2023/07/03 05:33:10;;;;;;;12.25;6.03;;;;;;;;;;4843935;29;20109;-80
2023/07/03 05:35:37;;;;;;;12.60;5.75;;;;;;;;;;4836639;29;20414;-79
2023/07/03 05:38:04;;;;;;;9.93;5.37;;;;;;;;;;4822426;29;20561;-81
2023/07/03 05:40:30;;;;;;;13.43;5.53;;;;;;;;;;4820453;29;20089;-82
2023/07/03 05:42:56;;;;;;;9.98;5.70;;;;;;;;;;4823479;29;20068;-80
2023/07/03 05:45:21;;;;;;;11.50;5.43;;;;;;;;;;4842831;29;20042;-82
2023/07/03 05:47:47;;;;;;;10.48;5.07;;;;;;;;;;4821786;29;20042;-84
2023/07/03 05:50:13;;;;;;;13.25;6.03;;;;;;;;;;4815632;29;20479;-83
2023/07/03 05:52:40;;;;;;;12.30;5.45;;;;;;;;;;4823098;29;20142;-82
2023/07/03 05:55:06;;;;;;;19.88;6.00;;;;;;;;;;4837978;29;20048;-80
2023/07/03 05:57:31;;;;;;;12.70;5.80;;;;;;;;;;4821340;29;20050;-81
2023/07/03 06:00:13;;;;;;;9.43;5.32;;;;;;;;;;4819306;29;20046;-81
2023/07/03 06:02:43;;;;;;;12.27;5.93;;;;;;;;;;4852891;29;20065;-80
2023/07/03 06:05:11;;;;;;;11.02;5.70;;;;;;;;;;4862883;29;20045;-79
2023/07/03 06:07:56;;;;;;;12.80;6.18;;;;;;;;;;4852651;29;20111;-81
2023/07/03 06:10:32;;;;;;;11.90;5.53;;;;;;;;;;4804219;29;20046;-80
2023/07/03 06:12:57;;;;;;;10.73;5.65;;;;;;;;;;4812848;29;20071;-78
2023/07/03 06:15:23;;;;;;;10.35;5.13;;;;;;;;;;4823770;29;20053;-80
2023/07/03 06:17:49;;;;;;;12.52;5.70;;;;;;;;;;4816593;29;20038;-80
2023/07/03 06:20:14;;;;;;;13.45;5.68;;;;;;;;;;4827804;29;20077;-80
2023/07/03 06:22:44;;;;;;;10.52;5.18;;;;;;;;;;4816868;29;20042;-79
2023/07/03 06:25:10;;;;;;;10.48;4.57;;;;;;;;;;4828497;29;20138;-81
2023/07/03 06:27:35;;;;;;;10.15;4.22;;;;;;;;;;4828999;29;20528;-80
2023/07/03 06:30:01;;;;;;;11.98;4.30;;;;;;;;;;4814807;29;20505;-80
2023/07/03 06:32:26;;;;;;;11.93;4.43;;;;;;;;;;4827906;29;20049;-82
2023/07/03 06:34:52;;;;;;;9.75;4.78;;;;;;;;;;4817313;29;20042;-81
2023/07/03 06:37:17;;;;;;;9.00;3.92;;;;;;;;;;4829818;29;20096;-80
2023/07/03 06:39:45;;;;;;;11.07;4.13;;;;;;;;;;4826350;29;20054;-80
2023/07/03 06:42:11;;;;;;;13.40;4.50;;;;;;;;;;4804337;29;20045;-80
2023/07/03 06:44:36;;;;;;;12.45;4.38;;;;;;;;;;4828815;29;20109;-81
2023/07/03 06:47:02;;;;;;;9.15;3.70;;;;;;;;;;4846215;29;20077;-80
2023/07/03 06:49:29;;;;;;;10.77;4.15;;;;;;;;;;4944304;29;20425;-79
2023/07/03 06:52:00;;;;;;;12.63;4.18;;;;;;;;;;4915013;29;20168;-81
2023/07/03 06:54:25;;;;;;;11.77;4.05;;;;;;;;;;4943412;29;20074;-81
2023/07/03 06:56:50;;;;;;;10.80;4.35;;;;;;;;;;4930273;29;20484;-80
2023/07/03 06:59:16;;;;;;;11.02;4.05;;;;;;;;;;4922986;29;20039;-81
2023/07/03 07:01:41;;;;;;;12.90;4.50;;;;;;;;;;4912503;29;20048;-80
2023/07/03 07:04:27;;;;;;;8.15;3.85;;;;;;;;;;4902120;29;20073;-81
2023/07/03 07:06:53;;;;;;;8.95;3.72;;;;;;;;;;4920779;29;20036;-80
2023/07/03 07:09:18;;;;;;;10.88;4.18;;;;;;;;;;4912580;29;20510;-80
2023/07/03 07:11:46;;;;;;;8.60;3.92;;;;;;;;;;4909109;29;20035;-80
2023/07/03 07:14:12;;;;;;;9.32;4.32;;;;;;;;;;4944047;29;20416;-80
2023/07/03 07:16:39;;;;;;;11.07;4.50;;;;;;;;;;4928247;29;20040;-80
2023/07/03 07:19:06;;;;;;;9.40;4.07;;;;;;;;;;4911747;29;20052;-81
2023/07/03 07:21:43;;;;;;;9.73;3.58;;;;;;;;;;4903908;29;20070;-80
2023/07/03 07:24:20;;;;;;;11.18;4.28;;;;;;;;;;4908704;29;20396;-80
2023/07/03 07:26:48;;;;;;;9.52;4.00;;;;;;;;;;4915797;29;20499;-79
2023/07/03 07:29:14;;;;;;;10.00;3.25;;;;;;;;;;4926958;29;20036;-80
2023/07/03 07:31:39;;;;;;;9.43;3.72;;;;;;;;;;4918576;29;20523;-80
2023/07/03 07:34:06;;;;;;;9.68;3.97;;;;;;;;;;4913883;29;20123;-79
2023/07/03 07:36:32;;;;;;;11.98;4.25;;;;;;;;;;4927699;29;20051;-80
2023/07/03 07:39:01;;;;;;;11.43;4.20;;;;;;;;;;4908422;29;20341;-80
2023/07/03 07:41:28;;;;;;;11.40;4.30;;;;;;;;;;4926529;29;20040;-79
2023/07/03 07:43:54;;;;;;;9.63;3.60;;;;;;;;;;4903070;29;20539;-81
2023/07/03 07:46:21;;;;;;;11.60;3.92;;;;;;;;;;4910557;29;20388;-81
2023/07/03 07:48:47;;;;;;;10.02;4.10;;;;;;;;;;4927944;29;20046;-81
2023/07/03 07:51:13;;;;;;;9.75;3.85;;;;;;;;;;4910659;29;20063;-80
2023/07/03 07:53:39;;;;;;;13.10;3.97;;;;;;;;;;4901402;29;20066;-80
2023/07/03 07:56:07;;;;;;;10.18;4.10;;;;;;;;;;4907625;29;20551;-80
2023/07/03 07:58:32;;;;;;;11.18;3.80;;;;;;;;;;4907355;29;20464;-81
2023/07/03 08:00:58;;;;;;;10.27;4.00;;;;;;;;;;4912833;29;20122;-79
2023/07/03 08:03:33;;;;;;;10.77;4.03;;;;;;;;;;4912809;29;20173;-80
2023/07/03 08:06:00;;;;;;;13.05;4.15;;;;;;;;;;4913168;29;20061;-81
2023/07/03 08:08:26;;;;;;;;;;;;;;;;;;4942374;28;20039;-79
2023/07/03 08:10:55;;;;;;;12.18;3.95;;;;;;;;;;4910489;29;20398;-79
2023/07/03 08:13:21;;;;;;;11.00;3.90;;;;;;;;;;4911262;29;20393;-81
2023/07/03 08:15:46;;;;;;;9.85;4.13;;;;;;;;;;4910570;29;20067;-81
2023/07/03 08:18:12;;;;;;;9.13;3.50;;;;;;;;;;4926531;29;21336;-80
2023/07/03 08:20:38;;;;;;;11.95;4.15;;;;;;;;;;4910943;29;20128;-81
2023/07/03 08:23:03;;;;;;;10.70;3.92;;;;;;;;;;4904076;29;20042;-82
2023/07/03 08:25:29;;;;;;;11.35;3.78;;;;;;;;;;4915328;29;20038;-80
2023/07/03 08:27:54;;;;;;;11.80;3.47;;;;;;;;;;4927776;29;20403;-82
2023/07/03 08:30:21;;;;;;;10.20;3.67;;;;;;;;;;4902467;28;20048;-81
2023/07/03 08:32:47;;;;;;;10.05;3.65;;;;;;;;;;4926058;29;20035;-80
2023/07/03 08:35:13;;;;;;;10.55;3.78;;;;;;;;;;4926637;29;20044;-80
2023/07/03 08:37:38;;;;;;;9.73;3.53;;;;;;;;;;4905514;29;20032;-82
2023/07/03 08:40:05;;;;;;;8.82;3.50;;;;;;;;;;4909402;29;20119;-81
2023/07/03 08:42:41;;;;;;;8.07;3.50;;;;;;;;;;4944421;28;20130;-82
2023/07/03 08:45:10;;;;;;;11.43;3.55;;;;;;;;;;4914666;29;20067;-80
2023/07/03 08:47:36;;;;;;;9.05;3.33;;;;;;;;;;4908706;29;20039;-82
2023/07/03 08:50:03;;;;;;;9.43;3.80;;;;;;;;;;4899730;29;20523;-80
2023/07/03 08:52:36;;;;;;;9.13;3.20;;;;;;;;;;4945338;29;20441;-80
2023/07/03 08:55:03;;;;;;;10.10;3.80;;;;;;;;;;4944981;28;20070;-80
2023/07/03 08:57:29;;;;;;;10.63;3.50;;;;;;;;;;4904289;29;20102;-81
2023/07/03 08:59:55;;;;;;;7.78;2.83;;;;;;;;;;4908328;29;20036;-80
2023/07/03 09:02:41;;;;;;;8.70;3.15;;;;;;;;;;4920476;29;20464;-81
2023/07/03 09:05:59;;;;;;;10.02;3.13;;;;;;;;;;4920532;29;20035;-83
2023/07/03 09:08:29;;;;;;;7.35;2.90;;;;;;;;;;4918029;29;20048;-81
2023/07/03 09:10:57;;;;;;;8.15;3.20;;;;;;;;;;4922199;29;20035;-79
2023/07/03 09:13:41;;;;;;;6.63;2.90;;;;;;;;;;4908268;29;20152;-82
2023/07/03 09:16:15;;;;;;;8.60;2.95;;;;;;;;;;4919624;29;20047;-81
2023/07/03 09:18:53;;;;;;;6.60;3.05;;;;;;;;;;4909292;29;20633;-83
2023/07/03 09:21:22;;;;;;;9.18;3.33;;;;;;;;;;4926649;29;20428;-83
2023/07/03 09:24:02;;;;;;;8.48;3.00;;;;;;;;;;4916798;29;20040;-81
2023/07/03 09:26:42;;;;;;;6.75;2.45;;;;;;;;;;4928973;29;20043;-81
2023/07/03 09:29:08;;;;;;;8.60;2.80;;;;;;;;;;4914052;29;20130;-80
2023/07/03 09:31:33;;;;;;;7.95;2.72;;;;;;;;;;4932642;29;20047;-84
2023/07/03 09:34:02;;;;;;;7.88;2.60;;;;;;;;;;4928933;29;20535;-80
2023/07/03 09:36:35;;;;;;;7.13;2.60;;;;;;;;;;4934766;29;20446;-80
2023/07/03 09:39:12;;;;;;;6.35;2.70;;;;;;;;;;4926320;29;20175;-80
2023/07/03 09:41:37;;;;;;;5.65;1.95;;;;;;;;;;4926150;29;20051;-82
2023/07/03 09:44:10;;;;;;;6.28;2.33;;;;;;;;;;4913253;29;20501;-82
2023/07/03 09:46:35;;;;;;;6.57;2.05;;;;;;;;;;4928927;29;20442;-81
2023/07/03 09:49:03;;;;;;;9.00;2.20;;;;;;;;;;4931402;29;20028;-80
2023/07/03 09:51:30;;;;;;;7.18;2.42;;;;;;;;;;4913374;29;20449;-81
2023/07/03 09:53:59;;;;;;;;;;;;;;;;;;4911083;29;20059;-80
2023/07/03 09:56:28;;;;;;;5.32;2.65;;;;;;;;;;4920197;29;20290;-81
2023/07/03 09:59:02;;;;;;;6.55;2.00;;;;;;;;;;4926248;29;20150;-81
2023/07/03 10:01:29;;;;;;;7.18;2.30;;;;;;;;;;4911539;29;20411;-82
2023/07/03 10:04:25;;;;;;;5.88;2.45;;;;;;;;;;4943903;29;20035;-80
2023/07/03 10:07:05;;;;;;;8.85;2.33;;;;;;;;;;4899965;29;20041;-80
2023/07/03 10:09:33;;;;;;;7.88;2.40;;;;;;;;;;4864108;29;20174;-79
2023/07/03 10:12:11;;;;;;;7.38;2.33;;;;;;;;;;4874095;29;20043;-77
2023/07/03 10:14:44;;;;;;;11.10;2.45;;;;;;;;;;4875433;29;20040;-77
2023/07/03 10:17:13;;;;;;;10.98;2.92;;;;;;;;;;4864841;29;20127;-76
2023/07/03 10:19:43;;;;;;;7.82;2.90;;;;;;;;;;4873503;29;20206;-78
2023/07/03 10:22:09;;;;;;;8.23;2.70;;;;;;;;;;4882812;29;20040;-78
2023/07/03 10:24:35;;;;;;;7.50;2.42;;;;;;;;;;4874915;29;20044;-78
2023/07/03 10:27:04;;;;;;;6.85;2.42;;;;;;;;;;4899823;29;20485;-78
2023/07/03 10:29:37;;;;;;;7.70;2.45;;;;;;;;;;4862005;29;20044;-76
2023/07/03 10:32:06;;;;;;;7.13;2.25;;;;;;;;;;4879794;29;20044;-76
2023/07/03 10:34:53;;;;;;;7.82;2.67;;;;;;;;;;4883157;29;20047;-77
2023/07/03 10:37:19;;;;;;;8.60;2.92;;;;;;;;;;4891595;29;20036;-77
2023/07/03 10:39:51;;;;;;;7.65;2.40;;;;;;;;;;4882384;29;20041;-76
2023/07/03 10:42:25;;;;;;;8.02;2.55;;;;;;;;;;4885359;29;20052;-77
2023/07/03 10:44:56;;;;;;;11.98;2.20;;;;;;;;;;4912648;29;20039;-77
2023/07/03 10:47:27;;;;;;;8.15;2.42;;;;;;;;;;4905147;29;20530;-77
2023/07/03 10:49:53;;;;;;;8.27;2.15;;;;;;;;;;4924783;29;20492;-81
2023/07/03 10:52:35;;;;;;;7.43;2.00;;;;;;;;;;4926625;29;20102;-80
2023/07/03 10:55:29;;;;;;;8.27;2.13;;;;;;;;;;4928536;29;20032;-79
2023/07/03 10:58:13;;;;;;;6.00;2.15;;;;;;;;;;4927822;29;20046;-81
2023/07/03 11:00:48;;;;;;;10.07;2.35;;;;;;;;;;4919232;29;20096;-80
2023/07/03 11:03:32;;;;;;;8.55;2.50;;;;;;;;;;4924504;29;20586;-81
2023/07/03 11:05:59;;;;;;;7.55;2.80;;;;;;;;;;4932781;29;20318;-79
2023/07/03 11:08:24;;;;;;;5.60;2.00;;;;;;;;;;4896798;29;20091;-80
2023/07/03 11:11:09;;;;;;;8.27;2.30;;;;;;;;;;4927007;29;20823;-84
2023/07/03 11:14:16;;;;;;;9.13;2.28;;;;;;;;;;4925399;29;20040;-82
2023/07/03 11:16:48;;;;;;;7.57;2.03;;;;;;;;;;4914681;29;20519;-82
2023/07/03 11:19:33;;;;;;;7.22;2.20;;;;;;;;;;4924660;29;20571;-83
2023/07/03 11:22:12;;;;;;;8.13;2.20;;;;;;;;;;4909395;29;20543;-81
2023/07/03 11:24:52;;;;;;;6.85;1.95;;;;;;;;;;4939948;28;20051;-81
2023/07/03 11:27:24;;;;;;;7.00;2.28;;;;;;;;;;4926577;29;20093;-80
2023/07/03 11:29:53;;;;;;;8.40;2.22;;;;;;;;;;4926652;29;20042;-79
2023/07/03 11:32:36;;;;;;;6.93;2.08;;;;;;;;;;4932547;29;20130;-80
2023/07/03 11:35:03;;;;;;;6.95;2.15;;;;;;;;;;4918597;29;20044;-79
2023/07/03 11:37:59;;;;;;;9.40;2.05;;;;;;;;;;4908922;29;20484;-80
2023/07/03 11:40:25;;;;;;;11.10;2.07;;;;;;;;;;4919371;29;20355;-79
2023/07/03 11:43:15;;;;;;;7.70;2.03;;;;;;;;;;4935384;29;20046;-78
2023/07/03 11:46:08;;;;;;;9.02;2.25;;;;;;;;;;4925064;29;20051;-79
2023/07/03 11:48:36;;;;;;;8.30;2.22;;;;;;;;;;4925514;29;20370;-78
2023/07/03 11:51:03;;;;;;;9.27;2.47;;;;;;;;;;4915522;29;20258;-80
2023/07/03 11:53:32;;;;;;;8.32;2.20;;;;;;;;;;4926732;28;20098;-81
2023/07/03 11:55:57;;;;;;;7.63;2.17;;;;;;;;;;4912840;29;20039;-81
2023/07/03 11:58:29;;;;;;;6.35;2.20;;;;;;;;;;4910637;29;20070;-80
2023/07/03 12:01:24;;;;;;;9.77;2.50;;;;;;;;;;4925221;29;20046;-82
2023/07/03 12:03:54;;;;;;;9.05;2.33;;;;;;;;;;4910879;29;20036;-80
2023/07/03 12:06:41;;;;;;;9.13;2.40;;;;;;;;;;4925578;29;20392;-80
2023/07/03 12:09:19;;;;;;;11.20;2.40;;;;;;;;;;4907045;29;20038;-79
2023/07/03 12:11:59;;;;;;;6.80;1.85;;;;;;;;;;4942172;29;20040;-80
2023/07/03 12:14:40;;;;;;;8.15;2.20;;;;;;;;;;4906868;29;20074;-80
2023/07/03 12:17:40;;;;;;;8.45;2.40;;;;;;;;;;4924284;29;20035;-80
2023/07/03 12:20:20;;;;;;;10.30;2.28;;;;;;;;;;4940147;29;20099;-83
2023/07/03 12:22:52;;;;;;;7.38;2.15;;;;;;;;;;4926316;29;20166;-81
2023/07/03 12:25:22;;;;;;;10.85;2.42;;;;;;;;;;4899908;29;20038;-80
2023/07/03 12:27:49;;;;;;;9.07;2.38;;;;;;;;;;4921893;29;20099;-79
2023/07/03 12:30:23;;;;;;;7.63;2.35;;;;;;;;;;4922934;29;20028;-80
2023/07/03 12:32:49;;;;;;;8.88;2.55;;;;;;;;;;4926722;29;20028;-80
2023/07/03 12:35:17;;;;;;;9.63;1.95;;;;;;;;;;4941941;29;20042;-82
2023/07/03 12:38:04;;;;;;;13.05;2.50;;;;;;;;;;4922958;29;20406;-81
2023/07/03 12:40:30;;;;;;;9.23;2.40;;;;;;;;;;4883774;29;20523;-80
2023/07/03 12:42:56;;;;;;;8.27;2.25;;;;;;;;;;4854354;29;20056;-80
2023/07/03 12:45:23;;;;;;;6.55;1.90;;;;;;;;;;4856713;29;20711;-82
2023/07/03 12:48:27;;;;;;;8.52;2.03;;;;;;;;;;4861250;29;20430;-81
2023/07/03 12:50:57;;;;;;;7.13;1.92;;;;;;;;;;4818264;29;20037;-77
2023/07/03 12:53:33;;;;;;;9.50;2.35;;;;;;;;;;4833643;29;20053;-78
2023/07/03 12:56:02;;;;;;;8.05;1.98;;;;;;;;;;4831637;29;20518;-78
2023/07/03 12:58:28;;;;;;;11.82;2.58;;;;;;;;;;4846327;29;20120;-78
2023/07/03 13:01:07;;;;;;;7.82;2.10;;;;;;;;;;4847442;29;20179;-82
2023/07/03 13:03:38;;;;;;;8.75;2.25;;;;;;;;;;4850723;29;20050;-80
2023/07/03 13:06:13;;;;;;;9.57;2.33;;;;;;;;;;4833103;29;20421;-78
2023/07/03 13:08:39;;;;;;;7.80;2.10;;;;;;;;;;4861687;29;20049;-78
2023/07/03 13:11:05;;;;;;;7.00;2.03;;;;;;;;;;4836203;29;20123;-79
2023/07/03 13:13:31;;;;;;;8.48;2.30;;;;;;;;;;4845573;29;20049;-81
2023/07/03 13:15:57;;;;;;;10.32;2.33;;;;;;;;;;4857777;29;20048;-79
2023/07/03 13:18:23;;;;;;;8.53;2.23;;;;;;;;;;4885546;29;20383;-81
2023/07/03 13:21:10;;;;;;;7.65;2.03;;;;;;;;;;4895712;29;20043;-82
2023/07/03 13:23:37;;;;;;;7.53;1.90;;;;;;;;;;4927870;29;20506;-78
2023/07/03 13:26:05;;;;;;;;;;;;;;;;;;4910424;29;20492;-80
2023/07/03 13:28:39;;;;;;;8.95;2.40;;;;;;;;;;4921973;29;19918;-80
2023/07/03 13:31:19;;;;;;;5.82;1.98;;;;;;;;;;4923208;29;20047;-80
2023/07/03 13:34:04;;;;;;;11.00;2.10;;;;;;;;;;4920556;29;20078;-81
2023/07/03 13:36:37;;;;;;;8.48;1.90;;;;;;;;;;4928914;29;20519;-79
2023/07/03 13:39:07;;;;;;;12.18;2.30;;;;;;;;;;4945802;29;20107;-79
2023/07/03 13:41:33;;;;;;;6.88;2.17;;;;;;;;;;4927004;29;20054;-79
2023/07/03 13:43:59;;;;;;;10.30;2.50;;;;;;;;;;4935529;28;20395;-81
2023/07/03 13:46:26;;;;;;;5.85;1.75;;;;;;;;;;4913534;29;20047;-79
2023/07/03 13:48:55;;;;;;;7.85;2.10;;;;;;;;;;4922388;29;20452;-81
2023/07/03 13:51:49;;;;;;;10.65;2.35;;;;;;;;;;4927431;29;20043;-81
2023/07/03 13:54:14;;;;;;;8.68;2.30;;;;;;;;;;4908933;29;20134;-80
2023/07/03 13:56:56;;;;;;;9.98;2.28;;;;;;;;;;4898476;29;20127;-78
2023/07/03 13:59:21;;;;;;;9.55;2.40;;;;;;;;;;4925620;29;20051;-81
2023/07/03 14:01:47;;;;;;;10.50;2.30;;;;;;;;;;4929456;29;20488;-79
2023/07/03 14:04:15;;;;;;;7.60;2.40;;;;;;;;;;4914638;29;20046;-80
2023/07/03 14:06:40;;;;;;;8.05;1.85;;;;;;;;;;4924052;29;20060;-78
2023/07/03 14:09:08;;;;;;;11.18;2.88;;;;;;;;;;4911242;29;20031;-80
2023/07/03 14:11:34;;;;;;;7.57;2.15;;;;;;;;;;4922170;29;20068;-80
2023/07/03 14:13:59;;;;;;;9.52;2.00;;;;;;;;;;4928599;29;20059;-79
2023/07/03 14:16:28;;;;;;;8.68;2.03;;;;;;;;;;4912518;29;20035;-80
2023/07/03 14:18:53;;;;;;;8.45;2.58;;;;;;;;;;4930271;29;20040;-80
2023/07/03 14:21:21;;;;;;;9.30;2.30;;;;;;;;;;4898936;29;20098;-80
2023/07/03 14:23:48;;;;;;;6.95;2.17;;;;;;;;;;4925822;29;20052;-83
2023/07/03 14:26:14;;;;;;;8.10;2.50;;;;;;;;;;4927448;29;20051;-78
2023/07/03 14:28:40;;;;;;;10.43;2.33;;;;;;;;;;4930864;29;20515;-80
2023/07/03 14:31:07;;;;;;;6.00;2.03;;;;;;;;;;4911300;29;20036;-79
2023/07/03 14:33:32;;;;;;;8.75;2.40;;;;;;;;;;4929225;29;20032;-80
2023/07/03 14:35:58;;;;;;;8.38;2.22;;;;;;;;;;4912085;29;20563;-79
2023/07/03 14:38:24;;;;;;;8.38;2.03;;;;;;;;;;4909283;29;20048;-83
2023/07/03 14:40:52;;;;;;;9.02;2.15;;;;;;;;;;4912455;29;20444;-82
2023/07/03 14:43:17;;;;;;;7.22;2.17;;;;;;;;;;4912513;29;20054;-80
2023/07/03 14:45:43;;;;;;;9.82;2.30;;;;;;;;;;4928083;29;20085;-79
2023/07/03 14:48:14;;;;;;;7.75;2.00;;;;;;;;;;4906662;29;20140;-80
2023/07/03 14:50:40;;;;;;;6.70;2.17;;;;;;;;;;4895803;29;20130;-79
2023/07/03 14:53:05;;;;;;;10.38;2.28;;;;;;;;;;4918158;29;20369;-79